Orbital elements of COSMOS 2362
| Launched | 29 December 1998 |
| Flight ended | – |
| Launch site | Tyuratam Missile and Space Center, Kazakhstan (Also known as Baikonur Cosmodrome) |
| Owner | Commonwealth of Independent States (former USSR) |
| NORAD ID | 25595 |
| Alternative names |
GLONASS GLONASS 72 GN 786 |
| Date fetched |
Epoch osculation |
Inc. [°] |
Ecc. | RA asc node [hr] |
Arg Peri. [°] |
Mean anom [°] |
Mean motion [rev/day] |
Abs. mag |
| Date fetched |
Epoch osculation |
Inc. [°] |
Ecc. | RA asc node [hr] |
Arg Peri. [°] |
Mean anom [°] |
Mean motion [rev/day] |
Abs. mag |
| 2026 May 03 17:57 | 2026 Apr 27 04:44:49 | 64.3052 | 0.00069 | 4.1332 | 57.2831 | 107.5246 | 2.13104 | – |
| 2026 May 02 17:57 | 2026 Apr 27 04:44:49 | 64.3052 | 0.00069 | 4.1332 | 57.2831 | 107.5246 | 2.13104 | – |
| 2026 May 01 17:56 | 2026 Apr 27 04:44:49 | 64.3052 | 0.00069 | 4.1332 | 57.2831 | 107.5246 | 2.13104 | – |
| 2026 Apr 30 17:56 | 2026 Apr 27 04:44:49 | 64.3052 | 0.00069 | 4.1332 | 57.2831 | 107.5246 | 2.13104 | – |
| 2026 Apr 29 17:57 | 2026 Apr 23 08:16:57 | 64.3028 | 0.00068 | 4.1422 | 57.0978 | 107.5246 | 2.13104 | – |
| 2026 Apr 28 17:56 | 2026 Apr 23 08:16:57 | 64.3028 | 0.00068 | 4.1422 | 57.0978 | 107.5246 | 2.13104 | – |
| 2026 Apr 27 17:58 | 2026 Apr 23 08:16:57 | 64.3028 | 0.00068 | 4.1422 | 57.0978 | 107.5246 | 2.13104 | – |
| 2026 Apr 26 17:58 | 2026 Apr 23 08:16:57 | 64.3028 | 0.00068 | 4.1422 | 57.0978 | 107.5246 | 2.13104 | – |
| 2026 Apr 25 17:58 | 2026 Apr 23 08:16:57 | 64.3028 | 0.00068 | 4.1422 | 57.0978 | 107.5246 | 2.13104 | – |
| 2026 Apr 24 17:59 | 2026 Apr 23 08:16:57 | 64.3028 | 0.00068 | 4.1422 | 57.0978 | 107.5246 | 2.13104 | – |
| 2026 Apr 23 17:57 | 2026 Apr 19 05:06:23 | 64.3001 | 0.00071 | 4.1519 | 57.9092 | 107.5246 | 2.13104 | – |
| 2026 Apr 22 17:57 | 2026 Apr 19 05:06:23 | 64.3001 | 0.00071 | 4.1519 | 57.9092 | 107.5246 | 2.13104 | – |
| 2026 Apr 21 17:57 | 2026 Apr 19 05:06:23 | 64.3001 | 0.00071 | 4.1519 | 57.9092 | 107.5246 | 2.13104 | – |
| 2026 Apr 20 17:57 | 2026 Apr 19 05:06:23 | 64.3001 | 0.00071 | 4.1519 | 57.9092 | 107.5246 | 2.13104 | – |
| 2026 Apr 19 17:58 | 2026 Apr 19 05:06:23 | 64.3001 | 0.00071 | 4.1519 | 57.9092 | 107.5246 | 2.13104 | – |
| 2026 Apr 18 17:56 | 2026 Apr 12 21:36:38 | 64.2962 | 0.00068 | 4.1666 | 56.7940 | 107.5246 | 2.13104 | – |
| 2026 Apr 16 17:57 | 2026 Apr 12 21:36:38 | 64.2962 | 0.00068 | 4.1666 | 56.7940 | 107.5246 | 2.13104 | – |
| 2026 Apr 14 17:57 | 2026 Apr 12 21:36:38 | 64.2962 | 0.00068 | 4.1666 | 56.7940 | 107.5246 | 2.13104 | – |
| 2026 Apr 13 17:57 | 2026 Apr 12 21:36:38 | 64.2962 | 0.00068 | 4.1666 | 56.7940 | 107.5246 | 2.13104 | – |
| 2026 Apr 12 17:57 | 2026 Apr 07 00:52:13 | 64.2923 | 0.00069 | 4.1804 | 56.5317 | 107.5246 | 2.13104 | – |
| 2026 Apr 11 17:57 | 2026 Apr 07 00:52:13 | 64.2923 | 0.00069 | 4.1804 | 56.5317 | 107.5246 | 2.13104 | – |
| 2026 Apr 10 17:58 | 2026 Apr 07 00:52:13 | 64.2923 | 0.00069 | 4.1804 | 56.5317 | 107.5246 | 2.13104 | – |
| 2026 Apr 09 18:01 | 2026 Apr 07 00:52:13 | 64.2923 | 0.00069 | 4.1804 | 56.5317 | 107.5246 | 2.13104 | – |
| 2026 Apr 08 17:57 | 2026 Apr 07 00:52:13 | 64.2923 | 0.00069 | 4.1804 | 56.5317 | 107.5246 | 2.13104 | – |
| 2026 Apr 07 17:57 | 2026 Apr 01 07:10:54 | 64.2886 | 0.00069 | 4.1938 | 56.4045 | 107.5246 | 2.13104 | – |
| 2026 Apr 06 17:57 | 2026 Apr 01 07:10:54 | 64.2886 | 0.00069 | 4.1938 | 56.4045 | 107.5246 | 2.13104 | – |